createdAt,value
2023-03-28T00:00:43.553Z,2.00
2023-03-28T00:03:14.429Z,2.27
2023-03-28T00:05:44.845Z,2.00
2023-03-28T00:08:13.186Z,2.83
2023-03-28T00:10:41.331Z,2.53
2023-03-28T00:13:09.639Z,2.60
2023-03-28T00:15:41.099Z,2.50
2023-03-28T00:18:11.459Z,2.63
2023-03-28T00:20:40.077Z,2.17
2023-03-28T00:23:09.490Z,2.50
2023-03-28T00:25:40.133Z,2.80
2023-03-28T00:28:08.413Z,2.47
2023-03-28T00:30:36.683Z,2.53
2023-03-28T00:33:06.608Z,3.27
2023-03-28T00:35:36.459Z,2.87
2023-03-28T00:38:04.708Z,3.13
2023-03-28T00:40:37.124Z,2.40
2023-03-28T00:43:05.335Z,2.40
2023-03-28T00:45:34.093Z,3.17
2023-03-28T00:48:03.791Z,3.07
2023-03-28T00:50:36.818Z,2.77
2023-03-28T00:53:06.161Z,2.80
2023-03-28T00:55:37.665Z,2.70
2023-03-28T00:58:08.383Z,2.67
2023-03-28T01:00:36.817Z,2.70
2023-03-28T01:03:06.736Z,3.07
2023-03-28T01:05:37.009Z,2.50
2023-03-28T01:08:07.874Z,2.40
2023-03-28T01:10:36.159Z,2.70
2023-03-28T01:13:05.133Z,2.83
2023-03-28T01:15:33.762Z,3.33
2023-03-28T01:18:03.058Z,3.57
2023-03-28T01:20:49.211Z,2.83
2023-03-28T01:23:35.980Z,3.33
2023-03-28T01:26:21.882Z,2.67
2023-03-28T01:28:57.872Z,3.27
2023-03-28T01:31:44.199Z,3.83
2023-03-28T01:34:26.539Z,3.13
2023-03-28T01:36:59.901Z,3.83
2023-03-28T01:39:32.134Z,5.00
2023-03-28T01:42:02.161Z,3.43
2023-03-28T01:44:35.279Z,3.60
2023-03-28T01:47:06.505Z,3.80
2023-03-28T01:49:37.433Z,3.83
2023-03-28T01:52:10.754Z,3.20
2023-03-28T01:54:44.278Z,3.80
2023-03-28T01:57:16.741Z,3.83
2023-03-28T01:59:46.474Z,3.87
2023-03-28T02:02:19.516Z,3.70
2023-03-28T02:04:48.929Z,4.13
2023-03-28T02:07:19.777Z,4.33
2023-03-28T02:09:49.134Z,4.10
2023-03-28T02:12:19.006Z,3.80
2023-03-28T02:14:49.151Z,4.03
2023-03-28T02:17:17.769Z,4.10
2023-03-28T02:19:48.959Z,3.87
2023-03-28T02:22:21.398Z,4.57
2023-03-28T02:24:51.841Z,4.30
2023-03-28T02:27:22.526Z,6.53
2023-03-28T02:29:50.891Z,3.93
2023-03-28T02:32:21.635Z,4.47
2023-03-28T02:34:51.425Z,4.90
2023-03-28T02:37:26.832Z,3.57
2023-03-28T02:40:04.811Z,4.20
2023-03-28T02:42:46.552Z,4.10
2023-03-28T02:45:21.476Z,4.00
2023-03-28T02:47:55.195Z,4.33
2023-03-28T02:50:27.244Z,3.70
2023-03-28T02:53:03.745Z,4.27
2023-03-28T02:55:35.300Z,3.97
2023-03-28T02:58:08.076Z,4.00
2023-03-28T03:00:39.313Z,3.30
2023-03-28T03:03:10.394Z,4.00
2023-03-28T03:05:38.929Z,4.17
2023-03-28T03:08:08.729Z,3.40
2023-03-28T03:10:36.881Z,3.43
2023-03-28T03:13:05.125Z,3.37
2023-03-28T03:15:35.503Z,3.77
2023-03-28T03:18:04.446Z,3.27
2023-03-28T03:20:33.515Z,3.50
2023-03-28T03:23:01.962Z,3.40
2023-03-28T03:25:31.697Z,4.03
2023-03-28T03:27:59.844Z,3.10
2023-03-28T03:30:28.328Z,3.77
2023-03-28T03:32:56.977Z,4.13
2023-03-28T03:35:25.471Z,3.13
2023-03-28T03:37:53.652Z,3.87
2023-03-28T03:40:21.809Z,3.43
2023-03-28T03:42:51.307Z,3.50
2023-03-28T03:45:19.453Z,3.70
2023-03-28T03:47:47.629Z,3.30
2023-03-28T03:50:15.823Z,3.73
2023-03-28T03:52:43.970Z,3.37
2023-03-28T03:55:12.506Z,3.10
2023-03-28T03:57:40.807Z,3.53
2023-03-28T04:00:12.117Z,3.50
2023-03-28T04:02:40.491Z,2.87
2023-03-28T04:05:09.313Z,2.97
2023-03-28T04:07:37.651Z,3.20
2023-03-28T04:10:06.292Z,3.43
2023-03-28T04:12:34.441Z,2.90
2023-03-28T04:15:02.650Z,3.20
2023-03-28T04:17:34.964Z,3.17
2023-03-28T04:20:12.944Z,3.33
2023-03-28T04:22:45.919Z,3.00
2023-03-28T04:25:14.843Z,3.43
2023-03-28T04:27:47.049Z,3.30
2023-03-28T04:30:17.631Z,3.10
2023-03-28T04:32:50.332Z,3.37
2023-03-28T04:35:18.680Z,3.50
2023-03-28T04:37:47.495Z,3.60
2023-03-28T04:40:17.675Z,3.10
2023-03-28T04:42:45.999Z,3.40
2023-03-28T04:45:16.402Z,3.23
2023-03-28T04:47:48.110Z,2.70
2023-03-28T04:50:16.544Z,3.00
2023-03-28T04:52:44.729Z,3.70
2023-03-28T04:55:12.936Z,3.00
2023-03-28T04:57:41.082Z,3.67
2023-03-28T05:00:10.730Z,2.83
2023-03-28T05:02:39.002Z,3.13
2023-03-28T05:05:09.109Z,2.63
2023-03-28T05:07:40.631Z,3.07
2023-03-28T05:10:09.404Z,3.30
2023-03-28T05:12:37.573Z,3.27
2023-03-28T05:15:06.173Z,3.20
2023-03-28T05:17:34.397Z,3.13
2023-03-28T05:20:02.691Z,3.10
2023-03-28T05:22:32.196Z,3.27
2023-03-28T05:25:00.630Z,2.73
2023-03-28T05:27:28.863Z,3.10
2023-03-28T05:29:57.127Z,2.87
2023-03-28T05:32:27.829Z,2.87
2023-03-28T05:34:56.487Z,2.60
2023-03-28T05:37:24.670Z,3.23
2023-03-28T05:39:58.141Z,2.83
2023-03-28T05:42:26.335Z,2.70
2023-03-28T05:44:54.534Z,2.90
2023-03-28T05:47:22.736Z,2.80
2023-03-28T05:49:52.084Z,3.43
2023-03-28T05:52:21.975Z,3.00
2023-03-28T05:54:51.756Z,2.83
2023-03-28T05:57:22.030Z,2.40
2023-03-28T05:59:50.406Z,2.93
2023-03-28T06:02:19.354Z,2.60
2023-03-28T06:04:48.563Z,2.90
2023-03-28T06:07:21.204Z,2.30
2023-03-28T06:09:53.794Z,2.20
2023-03-28T06:12:23.313Z,2.20
2023-03-28T06:14:51.721Z,2.17
2023-03-28T06:17:19.936Z,2.30
2023-03-28T06:19:48.221Z,2.10
2023-03-28T06:22:16.439Z,2.00
2023-03-28T06:24:44.639Z,2.20
2023-03-28T06:27:12.794Z,2.03
2023-03-28T06:29:42.328Z,2.03
2023-03-28T06:32:12.484Z,1.97
2023-03-28T06:34:40.632Z,2.10
2023-03-28T06:37:08.779Z,2.33
2023-03-28T06:39:37.036Z,2.03
2023-03-28T06:42:05.487Z,2.40
2023-03-28T06:44:33.648Z,2.20
2023-03-28T06:47:03.165Z,2.60
2023-03-28T06:49:31.346Z,1.93
2023-03-28T06:51:59.502Z,1.70
2023-03-28T06:54:27.851Z,2.03
2023-03-28T06:56:56.070Z,1.73
2023-03-28T06:59:24.386Z,1.70
2023-03-28T07:01:52.643Z,1.87
2023-03-28T07:04:22.175Z,1.80
2023-03-28T07:06:50.396Z,2.00
2023-03-28T07:09:18.591Z,1.73
2023-03-28T07:11:46.750Z,2.13
2023-03-28T07:14:14.943Z,2.00
2023-03-28T07:16:43.156Z,1.93
2023-03-28T07:19:11.584Z,1.53
2023-03-28T07:21:41.104Z,1.80
2023-03-28T07:24:09.981Z,1.80
2023-03-28T07:26:38.200Z,1.60
2023-03-28T07:29:06.401Z,1.63
2023-03-28T07:31:34.858Z,1.43
2023-03-28T07:34:03.127Z,2.10
2023-03-28T07:36:31.393Z,1.87
2023-03-28T07:39:00.925Z,1.77
2023-03-28T07:41:29.068Z,2.03
2023-03-28T07:43:57.261Z,2.00
2023-03-28T07:46:25.519Z,1.87
2023-03-28T07:48:53.782Z,1.30
2023-03-28T07:51:22.523Z,1.47
2023-03-28T07:53:50.811Z,1.30
2023-03-28T07:56:20.348Z,1.90
2023-03-28T07:58:48.519Z,1.50
2023-03-28T08:01:18.679Z,1.40
2023-03-28T08:03:46.642Z,1.53
2023-03-28T08:06:31.170Z,2.07
2023-03-28T08:09:00.147Z,1.50
2023-03-28T08:11:29.529Z,1.80
2023-03-28T08:13:57.472Z,1.70
2023-03-28T08:16:25.525Z,1.50
2023-03-28T08:19:09.311Z,1.40
2023-03-28T08:21:38.495Z,1.73
2023-03-28T08:24:07.709Z,1.50
2023-03-28T08:26:37.531Z,1.50
2023-03-28T08:29:06.009Z,1.60
2023-03-28T08:31:34.246Z,1.83
2023-03-28T08:34:02.129Z,1.80
2023-03-28T08:36:31.165Z,1.73
2023-03-28T08:39:01.423Z,2.07
2023-03-28T08:41:47.440Z,1.63
2023-03-28T08:44:37.397Z,2.00
2023-03-28T08:47:10.500Z,1.67
2023-03-28T08:49:46.067Z,1.73
2023-03-28T08:52:17.030Z,1.90
2023-03-28T08:54:48.417Z,1.40
2023-03-28T08:57:21.740Z,1.70
2023-03-28T09:00:00.084Z,1.57
2023-03-28T09:02:29.633Z,1.20
2023-03-28T09:05:11.934Z,1.27
2023-03-28T09:07:54.712Z,1.47
2023-03-28T09:10:27.075Z,1.50
2023-03-28T09:13:04.540Z,1.10
2023-03-28T09:15:40.219Z,1.30
2023-03-28T09:18:17.646Z,1.47
2023-03-28T09:20:50.024Z,1.20
2023-03-28T09:23:27.636Z,1.17
2023-03-28T09:26:01.821Z,1.40
2023-03-28T09:28:37.096Z,1.07
2023-03-28T09:31:09.062Z,1.43
2023-03-28T09:33:40.538Z,1.23
2023-03-28T09:36:12.621Z,1.13
2023-03-28T09:38:43.734Z,1.40
2023-03-28T09:41:15.595Z,1.10
2023-03-28T09:43:47.264Z,1.30
2023-03-28T09:46:18.572Z,1.10
2023-03-28T09:48:47.986Z,1.20
2023-03-28T09:51:17.388Z,1.33
2023-03-28T09:53:46.437Z,1.23
2023-03-28T09:56:24.492Z,1.47
2023-03-28T09:58:55.959Z,1.43
2023-03-28T10:01:33.624Z,1.30
2023-03-28T10:04:02.302Z,1.20
2023-03-28T10:06:31.642Z,1.30
2023-03-28T10:09:17.480Z,1.60
2023-03-28T10:11:48.686Z,1.30
2023-03-28T10:14:37.844Z,1.60
2023-03-28T10:17:07.328Z,1.30
2023-03-28T10:19:37.080Z,1.70
2023-03-28T10:22:08.294Z,1.60
2023-03-28T10:24:37.704Z,1.60
2023-03-28T10:27:10.711Z,1.40
2023-03-28T10:29:40.508Z,1.30
2023-03-28T10:32:08.770Z,1.33
2023-03-28T10:34:37.044Z,1.30
2023-03-28T10:37:05.407Z,0.97
2023-03-28T10:39:33.931Z,1.20
2023-03-28T10:42:02.674Z,1.30
2023-03-28T10:44:31.928Z,1.00
2023-03-28T10:47:03.410Z,1.20
2023-03-28T10:49:34.272Z,1.30
2023-03-28T10:52:02.438Z,1.00
2023-03-28T10:54:35.860Z,1.30
2023-03-28T10:57:06.999Z,1.23
2023-03-28T10:59:40.451Z,1.20
2023-03-28T11:02:28.840Z,1.50
2023-03-28T11:04:58.587Z,1.27
2023-03-28T11:07:31.018Z,1.47
2023-03-28T11:10:02.971Z,1.40
2023-03-28T11:12:51.208Z,1.60
2023-03-28T11:15:27.161Z,1.57
2023-03-28T11:18:00.414Z,1.37
2023-03-28T11:20:33.405Z,1.40
2023-03-28T11:23:08.350Z,1.50
2023-03-28T11:25:39.228Z,2.00
2023-03-28T11:28:10.926Z,1.50
2023-03-28T11:30:39.566Z,1.30
2023-03-28T11:33:13.051Z,1.57
2023-03-28T11:35:43.731Z,1.43
2023-03-28T11:38:14.291Z,1.73
2023-03-28T11:40:46.953Z,1.80
2023-03-28T11:43:21.173Z,1.60
2023-03-28T11:45:52.947Z,1.70
2023-03-28T11:48:26.481Z,1.70
2023-03-28T11:50:58.242Z,1.50
2023-03-28T11:53:29.169Z,1.60
2023-03-28T11:56:02.615Z,1.40
2023-03-28T11:58:31.558Z,1.40
2023-03-28T12:01:04.094Z,1.70
2023-03-28T12:03:37.460Z,2.07
2023-03-28T12:06:08.302Z,1.20
2023-03-28T12:08:41.664Z,1.47
2023-03-28T12:11:13.426Z,1.27
2023-03-28T12:13:46.210Z,1.30
2023-03-28T12:16:17.776Z,1.23
2023-03-28T12:18:49.144Z,1.40
2023-03-28T12:21:21.224Z,1.90
2023-03-28T12:23:56.347Z,1.53
2023-03-28T12:26:28.583Z,1.40
2023-03-28T12:28:58.718Z,1.50
2023-03-28T12:31:29.178Z,1.70
2023-03-28T12:34:03.537Z,1.20
2023-03-28T12:36:35.814Z,1.60
2023-03-28T12:39:05.842Z,1.83
2023-03-28T12:41:36.415Z,1.23
2023-03-28T12:44:08.332Z,1.50
2023-03-28T12:46:38.012Z,1.40
2023-03-28T12:49:10.371Z,1.60
2023-03-28T12:51:40.215Z,1.60
2023-03-28T12:54:10.361Z,1.70
2023-03-28T12:56:39.467Z,1.70
2023-03-28T12:59:26.587Z,2.10
2023-03-28T13:01:56.982Z,1.47
2023-03-28T13:04:30.267Z,2.13
2023-03-28T13:07:05.431Z,1.80
2023-03-28T13:09:54.461Z,1.80
2023-03-28T13:12:32.026Z,1.73
2023-03-28T13:15:01.206Z,1.60
2023-03-28T13:17:30.719Z,1.60
2023-03-28T13:20:09.618Z,1.50
2023-03-28T13:22:44.173Z,2.00
2023-03-28T13:25:27.154Z,1.87
2023-03-28T13:27:56.982Z,1.50
2023-03-28T13:30:26.404Z,1.67
2023-03-28T13:32:55.572Z,2.50
2023-03-28T13:35:46.674Z,1.70
2023-03-28T13:38:15.812Z,1.50
2023-03-28T13:40:50.699Z,1.80
2023-03-28T13:43:29.458Z,1.90
2023-03-28T13:45:59.880Z,1.70
2023-03-28T13:48:30.675Z,2.03
2023-03-28T13:51:02.453Z,1.90
2023-03-28T13:53:46.422Z,1.50
2023-03-28T13:56:21.750Z,1.80
2023-03-28T13:58:53.100Z,1.93
2023-03-28T14:01:24.245Z,1.63
2023-03-28T14:03:53.110Z,2.30
2023-03-28T14:06:23.845Z,2.10
2023-03-28T14:08:52.635Z,1.80
2023-03-28T14:11:23.197Z,2.07
2023-03-28T14:13:52.471Z,1.67
2023-03-28T14:16:21.415Z,1.70
2023-03-28T14:18:51.251Z,1.80
2023-03-28T14:21:19.563Z,2.00
2023-03-28T14:23:57.071Z,2.00
2023-03-28T14:26:27.501Z,2.17
2023-03-28T14:28:59.541Z,2.00
2023-03-28T14:31:31.744Z,1.87
2023-03-28T14:34:00.163Z,1.83
2023-03-28T14:36:31.531Z,1.93
2023-03-28T14:39:13.327Z,1.70
2023-03-28T14:41:42.950Z,2.13
2023-03-28T14:44:11.323Z,1.77
2023-03-28T14:46:40.254Z,2.20
2023-03-28T14:49:10.208Z,2.10
2023-03-28T14:51:42.184Z,2.10
2023-03-28T14:54:16.766Z,1.93
2023-03-28T14:56:45.780Z,1.93
2023-03-28T14:59:19.627Z,2.17
2023-03-28T15:01:49.553Z,2.40
2023-03-28T15:04:20.959Z,2.00
2023-03-28T15:06:55.583Z,2.10
2023-03-28T15:09:28.265Z,2.00
2023-03-28T15:11:57.235Z,2.10
2023-03-28T15:14:29.586Z,2.20
2023-03-28T15:16:58.386Z,2.10
2023-03-28T15:19:28.823Z,2.30
2023-03-28T15:21:58.350Z,1.93
2023-03-28T15:24:28.607Z,2.20
2023-03-28T15:26:58.328Z,1.77
2023-03-28T15:29:27.615Z,2.00
2023-03-28T15:31:58.127Z,1.90
2023-03-28T15:34:27.803Z,2.37
2023-03-28T15:36:59.438Z,1.97
2023-03-28T15:39:29.749Z,2.00
2023-03-28T15:42:01.236Z,2.07
2023-03-28T15:44:30.652Z,1.90
2023-03-28T15:47:00.715Z,1.93
2023-03-28T15:49:29.540Z,1.90
2023-03-28T15:51:58.628Z,1.73
2023-03-28T15:54:31.537Z,2.10
2023-03-28T15:57:03.004Z,1.53
2023-03-28T15:59:34.289Z,1.70
2023-03-28T16:02:21.596Z,1.97
2023-03-28T16:04:59.987Z,2.10
2023-03-28T16:07:28.339Z,1.90
2023-03-28T16:09:56.606Z,1.77
2023-03-28T16:12:26.385Z,1.67
2023-03-28T16:14:54.747Z,1.60
2023-03-28T16:17:25.649Z,1.83
2023-03-28T16:19:53.857Z,1.90
2023-03-28T16:22:22.011Z,1.60
2023-03-28T16:24:50.236Z,1.57
2023-03-28T16:27:18.545Z,1.93
2023-03-28T16:29:48.387Z,1.53
2023-03-28T16:32:17.031Z,1.77
2023-03-28T16:34:45.522Z,1.63
2023-03-28T16:37:13.720Z,1.67
2023-03-28T16:39:42.019Z,1.67
2023-03-28T16:42:10.467Z,1.60
2023-03-28T16:44:38.712Z,1.73
2023-03-28T16:47:08.256Z,1.90
2023-03-28T16:49:36.412Z,2.00
2023-03-28T16:52:05.133Z,1.70
2023-03-28T16:54:33.314Z,1.67
2023-03-28T16:57:01.619Z,1.50
2023-03-28T16:59:29.893Z,1.50
2023-03-28T17:01:58.158Z,1.47
2023-03-28T17:04:29.802Z,1.87
2023-03-28T17:06:58.179Z,1.80
2023-03-28T17:09:26.395Z,2.07
2023-03-28T17:11:54.578Z,1.90
2023-03-28T17:14:22.752Z,2.03
2023-03-28T17:16:50.974Z,1.93
2023-03-28T17:19:22.951Z,1.67
2023-03-28T17:21:53.483Z,1.60
2023-03-28T17:24:21.722Z,1.57
2023-03-28T17:26:49.901Z,1.67
2023-03-28T17:29:18.203Z,1.90
2023-03-28T17:31:47.236Z,1.80
2023-03-28T17:34:15.564Z,1.70
2023-03-28T17:36:44.258Z,1.70
2023-03-28T17:39:13.795Z,1.43
2023-03-28T17:41:42.427Z,1.70
2023-03-28T17:44:10.788Z,1.73
2023-03-28T17:46:39.235Z,1.57
2023-03-28T17:49:08.061Z,1.40
2023-03-28T17:51:36.361Z,1.40
2023-03-28T17:54:06.792Z,1.50
2023-03-28T17:56:36.686Z,1.20
2023-03-28T17:59:05.260Z,1.27
2023-03-28T18:01:33.708Z,1.13
2023-03-28T18:04:02.268Z,1.10
2023-03-28T18:06:30.866Z,1.43
2023-03-28T18:08:59.025Z,1.30
2023-03-28T18:11:27.211Z,1.40
2023-03-28T18:13:59.010Z,1.43
2023-03-28T18:16:27.712Z,1.63
2023-03-28T18:18:57.390Z,1.70
2023-03-28T18:21:26.038Z,1.30
2023-03-28T18:23:54.512Z,1.30
2023-03-28T18:26:23.860Z,1.80
2023-03-28T18:28:52.114Z,1.70
2023-03-28T18:31:28.012Z,1.90
2023-03-28T18:33:57.633Z,2.00
2023-03-28T18:36:26.395Z,1.50
2023-03-28T18:38:55.856Z,1.57
2023-03-28T18:41:24.190Z,1.80
2023-03-28T18:43:52.450Z,2.07
2023-03-28T18:46:22.044Z,1.93
2023-03-28T18:48:50.405Z,1.90
2023-03-28T18:51:20.333Z,1.80
2023-03-28T18:53:48.678Z,2.13
2023-03-28T18:56:16.938Z,1.70
2023-03-28T18:58:46.451Z,1.80
2023-03-28T19:01:15.548Z,1.80
2023-03-28T19:03:47.338Z,1.90
2023-03-28T19:06:16.363Z,2.20
2023-03-28T19:08:44.842Z,1.60
2023-03-28T19:11:14.154Z,1.97
2023-03-28T19:13:42.585Z,1.80
2023-03-28T19:16:12.416Z,2.20
2023-03-28T19:18:41.175Z,2.00
2023-03-28T19:21:11.532Z,2.27
2023-03-28T19:23:39.705Z,2.20
2023-03-28T19:26:08.562Z,2.40
2023-03-28T19:28:37.297Z,2.20
2023-03-28T19:31:06.585Z,2.07
2023-03-28T19:33:35.094Z,2.47
2023-03-28T19:36:03.362Z,2.13
2023-03-28T19:38:34.909Z,2.00
2023-03-28T19:41:04.096Z,1.93
2023-03-28T19:43:32.809Z,2.17
2023-03-28T19:46:04.435Z,2.63
2023-03-28T19:48:32.792Z,2.20
2023-03-28T19:51:00.958Z,2.23
2023-03-28T19:53:29.266Z,2.60
2023-03-28T19:55:59.941Z,2.60
2023-03-28T19:58:28.707Z,2.47
2023-03-28T20:00:57.005Z,2.47
2023-03-28T20:03:25.451Z,2.23
2023-03-28T20:05:53.653Z,2.47
2023-03-28T20:08:21.865Z,2.20
2023-03-28T20:10:51.149Z,2.23
2023-03-28T20:13:20.855Z,2.50
2023-03-28T20:15:49.067Z,2.40
2023-03-28T20:18:19.651Z,2.10
2023-03-28T20:20:50.636Z,2.90
2023-03-28T20:23:20.149Z,2.50
2023-03-28T20:25:48.452Z,3.17
2023-03-28T20:28:16.703Z,2.83
2023-03-28T20:30:46.921Z,3.03
2023-03-28T20:33:15.094Z,3.07
2023-03-28T20:35:43.292Z,2.80
2023-03-28T20:38:11.565Z,2.57
2023-03-28T20:40:40.924Z,3.00
2023-03-28T20:43:10.085Z,2.30
2023-03-28T20:45:38.966Z,3.20
2023-03-28T20:48:10.347Z,2.40
2023-03-28T20:50:41.181Z,2.67
2023-03-28T20:53:09.659Z,2.60
2023-03-28T20:55:38.400Z,2.40
2023-03-28T20:58:06.718Z,2.77
2023-03-28T21:00:35.803Z,2.20
2023-03-28T21:03:04.294Z,2.67
2023-03-28T21:05:34.477Z,2.33
2023-03-28T21:08:08.311Z,2.60
2023-03-28T21:10:38.435Z,2.20
2023-03-28T21:13:06.704Z,2.60
2023-03-28T21:15:35.505Z,2.57
2023-03-28T21:18:04.414Z,2.50
2023-03-28T21:20:34.145Z,3.07
2023-03-28T21:23:02.297Z,2.90
2023-03-28T21:25:30.486Z,2.77
2023-03-28T21:27:58.700Z,2.77
2023-03-28T21:30:26.995Z,2.73
2023-03-28T21:35:28.522Z,2.87
2023-03-28T21:37:58.063Z,2.90
2023-03-28T21:40:26.369Z,2.43
2023-03-28T21:42:54.529Z,2.40
2023-03-28T21:45:22.721Z,2.70
2023-03-28T21:47:51.228Z,2.50
2023-03-28T21:50:19.545Z,2.53
2023-03-28T21:52:47.709Z,2.70
2023-03-28T21:55:17.394Z,2.30
2023-03-28T21:57:45.536Z,2.20
2023-03-28T22:00:16.172Z,2.40
2023-03-28T22:02:45.004Z,1.93
2023-03-28T22:05:26.617Z,2.00
2023-03-28T22:07:57.601Z,2.03
2023-03-28T22:10:29.262Z,2.27
2023-03-28T22:12:58.699Z,1.70
2023-03-28T22:15:27.462Z,1.93
2023-03-28T22:17:58.172Z,1.90
2023-03-28T22:20:27.586Z,1.83
2023-03-28T22:23:00.372Z,2.03
2023-03-28T22:25:34.524Z,1.97
2023-03-28T22:28:03.877Z,1.90
2023-03-28T22:30:32.084Z,1.80
2023-03-28T22:33:00.607Z,1.90
2023-03-28T22:35:28.791Z,1.90
2023-03-28T22:37:56.977Z,1.83
2023-03-28T22:40:25.333Z,1.93
2023-03-28T22:42:55.013Z,1.80
2023-03-28T22:45:23.621Z,1.80
2023-03-28T22:47:52.187Z,1.80
2023-03-28T22:50:21.998Z,1.77
2023-03-28T22:52:52.892Z,1.80
2023-03-28T22:55:22.068Z,2.20
2023-03-28T22:57:51.366Z,1.60
2023-03-28T23:00:22.699Z,1.93
2023-03-28T23:02:51.736Z,1.90
2023-03-28T23:05:20.646Z,1.77
2023-03-28T23:07:50.559Z,1.70
2023-03-28T23:10:20.180Z,1.97
2023-03-28T23:12:48.865Z,1.77
2023-03-28T23:15:17.248Z,1.97
2023-03-28T23:17:46.855Z,1.70
2023-03-28T23:20:17.044Z,1.80
2023-03-28T23:22:46.054Z,1.80
2023-03-28T23:25:15.534Z,1.37
2023-03-28T23:27:44.106Z,1.67
2023-03-28T23:30:13.076Z,1.60
2023-03-28T23:32:41.266Z,1.40
2023-03-28T23:35:11.797Z,1.97
2023-03-28T23:37:40.299Z,1.60
2023-03-28T23:40:14.117Z,1.67
2023-03-28T23:42:44.289Z,1.73
2023-03-28T23:45:13.773Z,1.50
2023-03-28T23:47:42.304Z,1.10
2023-03-28T23:50:12.755Z,1.70
2023-03-28T23:52:40.931Z,1.40
2023-03-28T23:55:09.869Z,1.80
2023-03-28T23:57:38.090Z,1.57
